sensor_id;sensor_type;location;lat;lon;timestamp;P1;durP1;ratioP1;P2;durP2;ratioP2
12912;SDS011;6524;51.368;11.984;2022-09-23T04:01:55;7.30;;;6.00;;
12912;SDS011;6524;51.368;11.984;2022-09-23T04:06:56;9.50;;;5.70;;
12912;SDS011;6524;51.368;11.984;2022-09-23T04:11:56;5.43;;;4.93;;
12912;SDS011;6524;51.368;11.984;2022-09-23T04:16:56;5.90;;;5.23;;
12912;SDS011;6524;51.368;11.984;2022-09-23T04:21:57;7.80;;;6.70;;
12912;SDS011;6524;51.368;11.984;2022-09-23T04:26:57;6.60;;;5.87;;
12912;SDS011;6524;51.368;11.984;2022-09-23T04:31:58;6.10;;;5.30;;
12912;SDS011;6524;51.368;11.984;2022-09-23T04:36:58;8.33;;;6.30;;
12912;SDS011;6524;51.368;11.984;2022-09-23T04:41:59;8.60;;;5.90;;
12912;SDS011;6524;51.368;11.984;2022-09-23T04:46:59;9.63;;;6.00;;
12912;SDS011;6524;51.368;11.984;2022-09-23T04:52:00;7.27;;;6.03;;
12912;SDS011;6524;51.368;11.984;2022-09-23T04:57:01;7.13;;;5.43;;
12912;SDS011;6524;51.368;11.984;2022-09-23T05:02:02;7.33;;;5.60;;
12912;SDS011;6524;51.368;11.984;2022-09-23T05:07:02;7.73;;;6.00;;
12912;SDS011;6524;51.368;11.984;2022-09-23T05:12:03;6.50;;;5.27;;
12912;SDS011;6524;51.368;11.984;2022-09-23T05:17:04;8.37;;;6.13;;
12912;SDS011;6524;51.368;11.984;2022-09-23T05:22:04;9.47;;;5.87;;
12912;SDS011;6524;51.368;11.984;2022-09-23T05:27:05;7.87;;;6.50;;
12912;SDS011;6524;51.368;11.984;2022-09-23T05:32:06;7.70;;;6.10;;
12912;SDS011;6524;51.368;11.984;2022-09-23T05:37:07;8.80;;;6.23;;
12912;SDS011;6524;51.368;11.984;2022-09-23T05:42:07;8.17;;;6.53;;
12912;SDS011;6524;51.368;11.984;2022-09-23T05:47:11;10.23;;;6.80;;
12912;SDS011;6524;51.368;11.984;2022-09-23T05:52:11;8.43;;;6.40;;
12912;SDS011;6524;51.368;11.984;2022-09-23T05:57:12;9.63;;;7.07;;
12912;SDS011;6524;51.368;11.984;2022-09-23T06:02:12;10.30;;;6.80;;
12912;SDS011;6524;51.368;11.984;2022-09-23T06:07:14;14.33;;;7.77;;
12912;SDS011;6524;51.368;11.984;2022-09-23T06:12:14;9.40;;;7.40;;
12912;SDS011;6524;51.368;11.984;2022-09-23T06:17:14;9.80;;;7.70;;
12912;SDS011;6524;51.368;11.984;2022-09-23T06:22:15;12.27;;;8.10;;
12912;SDS011;6524;51.368;11.984;2022-09-23T06:27:17;10.90;;;7.57;;
12912;SDS011;6524;51.368;11.984;2022-09-23T06:32:17;8.10;;;6.40;;
12912;SDS011;6524;51.368;11.984;2022-09-23T06:37:18;9.43;;;6.00;;
12912;SDS011;6524;51.368;11.984;2022-09-23T06:42:19;7.93;;;6.20;;
12912;SDS011;6524;51.368;11.984;2022-09-23T06:47:19;9.83;;;6.73;;
12912;SDS011;6524;51.368;11.984;2022-09-23T06:52:19;7.87;;;6.40;;
12912;SDS011;6524;51.368;11.984;2022-09-23T06:57:20;9.93;;;6.40;;
12912;SDS011;6524;51.368;11.984;2022-09-23T07:02:20;10.35;;;6.40;;
12912;SDS011;6524;51.368;11.984;2022-09-23T07:07:20;9.18;;;6.68;;
12912;SDS011;6524;51.368;11.984;2022-09-23T07:12:21;8.85;;;6.43;;
12912;SDS011;6524;51.368;11.984;2022-09-23T07:17:23;6.63;;;6.03;;
12912;SDS011;6524;51.368;11.984;2022-09-23T07:22:24;6.80;;;5.70;;
12912;SDS011;6524;51.368;11.984;2022-09-23T07:27:25;5.10;;;4.60;;
12912;SDS011;6524;51.368;11.984;2022-09-23T07:32:27;4.57;;;4.18;;
12912;SDS011;6524;51.368;11.984;2022-09-23T07:37:27;3.87;;;3.43;;
12912;SDS011;6524;51.368;11.984;2022-09-23T07:42:27;3.78;;;3.47;;
12912;SDS011;6524;51.368;11.984;2022-09-23T07:47:28;3.60;;;3.30;;
12912;SDS011;6524;51.368;11.984;2022-09-23T07:52:28;5.40;;;3.25;;
12912;SDS011;6524;51.368;11.984;2022-09-23T07:57:29;4.10;;;3.70;;
12912;SDS011;6524;51.368;11.984;2022-09-23T08:02:29;3.33;;;3.10;;
12912;SDS011;6524;51.368;11.984;2022-09-23T08:07:30;3.38;;;3.08;;
12912;SDS011;6524;51.368;11.984;2022-09-23T08:12:33;4.07;;;3.40;;
12912;SDS011;6524;51.368;11.984;2022-09-23T08:17:33;3.60;;;3.30;;
12912;SDS011;6524;51.368;11.984;2022-09-23T08:22:33;3.42;;;3.10;;
12912;SDS011;6524;51.368;11.984;2022-09-23T08:27:34;3.63;;;3.20;;
12912;SDS011;6524;51.368;11.984;2022-09-23T08:32:34;3.50;;;3.10;;
12912;SDS011;6524;51.368;11.984;2022-09-23T08:37:34;3.40;;;3.20;;
12912;SDS011;6524;51.368;11.984;2022-09-23T08:42:35;3.75;;;3.05;;
12912;SDS011;6524;51.368;11.984;2022-09-23T08:47:56;3.67;;;3.28;;
12912;SDS011;6524;51.368;11.984;2022-09-23T08:53:13;4.38;;;3.42;;
12912;SDS011;6524;51.368;11.984;2022-09-23T09:03:34;3.47;;;2.80;;
12912;SDS011;6524;51.368;11.984;2022-09-23T09:08:39;4.15;;;3.20;;
12912;SDS011;6524;51.368;11.984;2022-09-23T09:13:47;4.28;;;2.70;;
12912;SDS011;6524;51.368;11.984;2022-09-23T09:18:58;3.10;;;2.70;;
12912;SDS011;6524;51.368;11.984;2022-09-23T09:24:00;2.75;;;2.55;;
12912;SDS011;6524;51.368;11.984;2022-09-23T09:29:09;2.90;;;2.70;;
12912;SDS011;6524;51.368;11.984;2022-09-23T09:34:37;2.95;;;2.50;;
12912;SDS011;6524;51.368;11.984;2022-09-23T09:39:41;3.33;;;2.53;;
12912;SDS011;6524;51.368;11.984;2022-09-23T09:44:45;4.93;;;2.40;;
12912;SDS011;6524;51.368;11.984;2022-09-23T09:50:39;3.80;;;2.90;;
12912;SDS011;6524;51.368;11.984;2022-09-23T09:55:59;3.40;;;3.20;;
12912;SDS011;6524;51.368;11.984;2022-09-23T10:01:00;5.13;;;3.13;;
12912;SDS011;6524;51.368;11.984;2022-09-23T10:06:01;3.25;;;2.95;;
12912;SDS011;6524;51.368;11.984;2022-09-23T10:11:14;3.45;;;3.15;;
12912;SDS011;6524;51.368;11.984;2022-09-23T10:16:16;3.00;;;2.70;;
12912;SDS011;6524;51.368;11.984;2022-09-23T10:21:19;3.40;;;3.10;;
12912;SDS011;6524;51.368;11.984;2022-09-23T10:26:28;3.25;;;2.95;;
12912;SDS011;6524;51.368;11.984;2022-09-23T10:31:32;3.80;;;3.00;;
12912;SDS011;6524;51.368;11.984;2022-09-23T10:36:34;3.60;;;3.30;;
12912;SDS011;6524;51.368;11.984;2022-09-23T10:41:37;3.40;;;3.10;;
12912;SDS011;6524;51.368;11.984;2022-09-23T10:47:07;3.35;;;3.05;;
12912;SDS011;6524;51.368;11.984;2022-09-23T11:03:44;3.38;;;3.03;;
12912;SDS011;6524;51.368;11.984;2022-09-23T11:24:59;4.55;;;2.60;;
12912;SDS011;6524;51.368;11.984;2022-09-23T11:30:07;3.22;;;2.95;;
12912;SDS011;6524;51.368;11.984;2022-09-23T11:40:21;2.30;;;2.10;;
12912;SDS011;6524;51.368;11.984;2022-09-23T11:45:30;3.03;;;2.20;;
12912;SDS011;6524;51.368;11.984;2022-09-23T11:50:41;2.58;;;2.30;;
12912;SDS011;6524;51.368;11.984;2022-09-23T11:55:56;2.65;;;1.85;;
12912;SDS011;6524;51.368;11.984;2022-09-23T12:01:05;2.13;;;1.98;;
12912;SDS011;6524;51.368;11.984;2022-09-23T12:06:13;2.10;;;1.90;;
12912;SDS011;6524;51.368;11.984;2022-09-23T12:11:27;2.42;;;2.20;;
12912;SDS011;6524;51.368;11.984;2022-09-23T12:16:52;3.28;;;2.00;;
12912;SDS011;6524;51.368;11.984;2022-09-23T12:22:22;2.40;;;2.20;;
12912;SDS011;6524;51.368;11.984;2022-09-23T12:27:43;3.63;;;3.25;;
12912;SDS011;6524;51.368;11.984;2022-09-23T12:32:47;2.38;;;2.20;;
12912;SDS011;6524;51.368;11.984;2022-09-23T12:37:48;3.17;;;2.10;;
12912;SDS011;6524;51.368;11.984;2022-09-23T12:42:48;2.33;;;2.10;;
12912;SDS011;6524;51.368;11.984;2022-09-23T12:47:50;2.22;;;2.03;;
12912;SDS011;6524;51.368;11.984;2022-09-23T12:52:50;2.28;;;2.08;;
12912;SDS011;6524;51.368;11.984;2022-09-23T12:57:51;2.17;;;2.08;;
12912;SDS011;6524;51.368;11.984;2022-09-23T13:02:56;2.30;;;2.10;;
12912;SDS011;6524;51.368;11.984;2022-09-23T13:08:17;2.17;;;1.80;;
12912;SDS011;6524;51.368;11.984;2022-09-23T13:13:32;1.95;;;1.73;;
12912;SDS011;6524;51.368;11.984;2022-09-23T13:18:52;2.10;;;1.90;;
12912;SDS011;6524;51.368;11.984;2022-09-23T13:29:26;2.08;;;1.85;;
12912;SDS011;6524;51.368;11.984;2022-09-23T13:34:33;2.05;;;1.90;;
12912;SDS011;6524;51.368;11.984;2022-09-23T16:35:16;3.80;;;2.95;;
12912;SDS011;6524;51.368;11.984;2022-09-23T16:40:20;3.58;;;2.92;;
12912;SDS011;6524;51.368;11.984;2022-09-23T16:45:21;3.70;;;2.95;;
12912;SDS011;6524;51.368;11.984;2022-09-23T16:50:22;3.80;;;2.75;;
12912;SDS011;6524;51.368;11.984;2022-09-23T16:55:24;3.72;;;3.42;;
12912;SDS011;6524;51.368;11.984;2022-09-23T17:00:26;3.33;;;3.00;;
12912;SDS011;6524;51.368;11.984;2022-09-23T17:05:47;4.35;;;3.20;;
12912;SDS011;6524;51.368;11.984;2022-09-23T17:10:56;4.07;;;3.40;;
12912;SDS011;6524;51.368;11.984;2022-09-23T17:16:00;3.95;;;3.53;;
12912;SDS011;6524;51.368;11.984;2022-09-23T17:21:04;4.50;;;3.75;;
12912;SDS011;6524;51.368;11.984;2022-09-23T17:26:08;4.35;;;3.95;;
12912;SDS011;6524;51.368;11.984;2022-09-23T17:31:11;5.80;;;5.20;;
12912;SDS011;6524;51.368;11.984;2022-09-23T17:36:12;5.10;;;4.60;;
12912;SDS011;6524;51.368;11.984;2022-09-23T17:41:13;5.68;;;5.18;;
12912;SDS011;6524;51.368;11.984;2022-09-23T17:46:14;5.28;;;4.78;;
12912;SDS011;6524;51.368;11.984;2022-09-23T17:51:17;6.18;;;5.57;;
12912;SDS011;6524;51.368;11.984;2022-09-23T17:56:19;7.10;;;5.50;;
12912;SDS011;6524;51.368;11.984;2022-09-23T18:01:22;6.13;;;5.53;;
12912;SDS011;6524;51.368;11.984;2022-09-23T18:06:25;6.97;;;6.00;;
12912;SDS011;6524;51.368;11.984;2022-09-23T18:11:34;6.20;;;5.70;;
12912;SDS011;6524;51.368;11.984;2022-09-23T18:16:38;7.53;;;5.70;;
12912;SDS011;6524;51.368;11.984;2022-09-23T18:21:40;6.93;;;5.38;;
12912;SDS011;6524;51.368;11.984;2022-09-23T18:26:45;7.05;;;5.93;;
12912;SDS011;6524;51.368;11.984;2022-09-23T18:31:46;7.35;;;6.03;;
12912;SDS011;6524;51.368;11.984;2022-09-23T18:37:16;7.25;;;6.32;;
12912;SDS011;6524;51.368;11.984;2022-09-23T18:42:16;6.50;;;5.80;;
12912;SDS011;6524;51.368;11.984;2022-09-23T18:47:16;6.35;;;5.75;;
12912;SDS011;6524;51.368;11.984;2022-09-23T18:52:40;6.50;;;5.80;;
12912;SDS011;6524;51.368;11.984;2022-09-23T18:57:40;5.93;;;5.43;;
12912;SDS011;6524;51.368;11.984;2022-09-23T19:02:40;6.10;;;5.50;;
12912;SDS011;6524;51.368;11.984;2022-09-23T19:07:45;6.95;;;6.25;;
12912;SDS011;6524;51.368;11.984;2022-09-23T19:12:45;7.05;;;6.35;;
12912;SDS011;6524;51.368;11.984;2022-09-23T19:17:46;7.78;;;5.90;;
12912;SDS011;6524;51.368;11.984;2022-09-23T19:22:46;7.55;;;6.45;;
12912;SDS011;6524;51.368;11.984;2022-09-23T19:27:46;7.22;;;5.38;;
12912;SDS011;6524;51.368;11.984;2022-09-23T19:32:48;6.10;;;5.50;;
12912;SDS011;6524;51.368;11.984;2022-09-23T19:37:48;6.45;;;5.25;;
12912;SDS011;6524;51.368;11.984;2022-09-23T19:42:52;6.38;;;5.78;;
12912;SDS011;6524;51.368;11.984;2022-09-23T19:47:53;7.05;;;5.90;;
12912;SDS011;6524;51.368;11.984;2022-09-23T19:52:55;8.48;;;6.20;;
12912;SDS011;6524;51.368;11.984;2022-09-23T19:57:56;7.65;;;6.38;;
12912;SDS011;6524;51.368;11.984;2022-09-23T20:02:56;7.45;;;6.63;;
12912;SDS011;6524;51.368;11.984;2022-09-23T20:07:57;7.93;;;7.13;;
12912;SDS011;6524;51.368;11.984;2022-09-23T20:12:58;7.88;;;6.85;;
12912;SDS011;6524;51.368;11.984;2022-09-23T20:17:59;7.55;;;6.75;;
12912;SDS011;6524;51.368;11.984;2022-09-23T20:22:59;7.97;;;6.80;;
12912;SDS011;6524;51.368;11.984;2022-09-23T20:28:03;8.05;;;6.85;;
12912;SDS011;6524;51.368;11.984;2022-09-23T20:33:04;7.68;;;6.63;;
12912;SDS011;6524;51.368;11.984;2022-09-23T20:38:05;7.45;;;6.53;;
12912;SDS011;6524;51.368;11.984;2022-09-23T20:43:05;7.20;;;6.50;;
12912;SDS011;6524;51.368;11.984;2022-09-23T20:48:05;7.65;;;6.85;;
12912;SDS011;6524;51.368;11.984;2022-09-23T20:53:10;7.55;;;6.75;;
12912;SDS011;6524;51.368;11.984;2022-09-23T20:58:10;7.82;;;7.03;;
12912;SDS011;6524;51.368;11.984;2022-09-23T21:03:11;8.50;;;6.97;;
12912;SDS011;6524;51.368;11.984;2022-09-23T21:08:11;7.93;;;6.88;;
12912;SDS011;6524;51.368;11.984;2022-09-23T21:13:12;7.35;;;6.65;;
12912;SDS011;6524;51.368;11.984;2022-09-23T21:18:12;8.35;;;6.88;;
12912;SDS011;6524;51.368;11.984;2022-09-23T21:23:12;8.48;;;7.25;;
12912;SDS011;6524;51.368;11.984;2022-09-23T21:28:13;7.88;;;6.97;;
12912;SDS011;6524;51.368;11.984;2022-09-23T21:33:13;8.63;;;7.60;;
12912;SDS011;6524;51.368;11.984;2022-09-23T21:38:16;8.18;;;7.38;;
12912;SDS011;6524;51.368;11.984;2022-09-23T21:43:16;9.27;;;7.68;;
12912;SDS011;6524;51.368;11.984;2022-09-23T21:48:17;8.77;;;7.25;;
12912;SDS011;6524;51.368;11.984;2022-09-23T21:53:17;7.80;;;7.00;;
12912;SDS011;6524;51.368;11.984;2022-09-23T21:58:17;8.88;;;7.97;;
12912;SDS011;6524;51.368;11.984;2022-09-23T22:03:18;7.78;;;6.97;;
12912;SDS011;6524;51.368;11.984;2022-09-23T22:08:19;8.15;;;7.35;;
12912;SDS011;6524;51.368;11.984;2022-09-23T22:13:19;8.48;;;7.65;;
12912;SDS011;6524;51.368;11.984;2022-09-23T22:18:19;8.57;;;7.65;;
12912;SDS011;6524;51.368;11.984;2022-09-23T22:23:20;8.43;;;7.63;;
12912;SDS011;6524;51.368;11.984;2022-09-23T22:28:20;9.35;;;8.07;;
12912;SDS011;6524;51.368;11.984;2022-09-23T22:33:39;10.73;;;8.02;;
12912;SDS011;6524;51.368;11.984;2022-09-23T22:38:39;10.35;;;8.45;;
12912;SDS011;6524;51.368;11.984;2022-09-23T22:43:40;8.98;;;8.13;;
12912;SDS011;6524;51.368;11.984;2022-09-23T22:48:40;8.43;;;7.63;;
12912;SDS011;6524;51.368;11.984;2022-09-23T22:53:41;8.45;;;7.70;;
12912;SDS011;6524;51.368;11.984;2022-09-23T22:58:42;9.32;;;8.23;;
12912;SDS011;6524;51.368;11.984;2022-09-23T23:03:42;9.48;;;7.93;;
12912;SDS011;6524;51.368;11.984;2022-09-23T23:08:44;9.63;;;8.15;;
12912;SDS011;6524;51.368;11.984;2022-09-23T23:13:45;9.77;;;8.50;;
12912;SDS011;6524;51.368;11.984;2022-09-23T23:18:45;9.15;;;8.23;;
12912;SDS011;6524;51.368;11.984;2022-09-23T23:23:47;9.40;;;8.40;;
12912;SDS011;6524;51.368;11.984;2022-09-23T23:28:50;9.27;;;8.45;;
12912;SDS011;6524;51.368;11.984;2022-09-23T23:33:51;9.30;;;8.50;;
12912;SDS011;6524;51.368;11.984;2022-09-23T23:38:52;9.63;;;8.63;;
12912;SDS011;6524;51.368;11.984;2022-09-23T23:43:53;10.05;;;9.05;;
12912;SDS011;6524;51.368;11.984;2022-09-23T23:48:55;9.15;;;8.23;;
12912;SDS011;6524;51.368;11.984;2022-09-23T23:53:57;10.18;;;8.82;;
12912;SDS011;6524;51.368;11.984;2022-09-23T23:58:59;10.50;;;9.40;;
